createdAt,value
2018-12-25T00:02:05.405Z,91.31
2018-12-25T00:04:33.878Z,91.01
2018-12-25T00:07:02.374Z,90.57
2018-12-25T00:09:30.863Z,90.11
2018-12-25T00:11:59.365Z,91.40
2018-12-25T00:14:27.856Z,90.72
2018-12-25T00:16:56.352Z,89.95
2018-12-25T00:19:24.833Z,89.67
2018-12-25T00:21:53.318Z,89.96
2018-12-25T00:24:22.041Z,89.01
2018-12-25T00:26:50.528Z,90.31
2018-12-25T00:29:18.995Z,90.72
2018-12-25T00:31:47.476Z,90.15
2018-12-25T00:34:15.964Z,89.70
2018-12-25T00:36:44.441Z,89.77
2018-12-25T00:39:13.170Z,90.60
2018-12-25T00:41:41.651Z,89.79
2018-12-25T00:44:10.372Z,90.63
2018-12-25T00:46:38.855Z,90.77
2018-12-25T00:49:14.585Z,90.67
2018-12-25T00:51:37.550Z,91.42
2018-12-25T00:54:06.044Z,91.64
2018-12-25T00:56:53.856Z,91.47
2018-12-25T00:59:22.357Z,91.83
2018-12-25T01:01:50.833Z,91.90
2018-12-25T01:04:19.327Z,92.33
2018-12-25T01:06:47.808Z,93.07
2018-12-25T01:09:16.292Z,93.30
2018-12-25T01:11:44.768Z,93.49
2018-12-25T01:14:13.247Z,92.71
2018-12-25T01:16:41.732Z,92.81
2018-12-25T01:19:10.461Z,91.70
2018-12-25T01:21:38.969Z,91.77
2018-12-25T01:24:07.464Z,92.75
2018-12-25T01:26:35.944Z,93.26
2018-12-25T01:29:04.443Z,93.24
2018-12-25T01:31:32.923Z,93.51
2018-12-25T01:34:01.414Z,93.77
2018-12-25T01:36:29.896Z,93.55
2018-12-25T01:38:58.391Z,93.66
2018-12-25T01:41:26.878Z,93.58
2018-12-25T01:43:55.369Z,92.70
2018-12-25T01:46:23.856Z,92.70
2018-12-25T01:48:52.363Z,92.41
2018-12-25T01:51:20.851Z,92.14
2018-12-25T01:53:49.356Z,92.07
2018-12-25T01:56:17.834Z,91.67
2018-12-25T01:58:46.323Z,92.42
2018-12-25T02:01:14.815Z,92.69
2018-12-25T02:03:43.531Z,92.13
2018-12-25T02:06:12.017Z,92.88
2018-12-25T02:08:40.506Z,92.07
2018-12-25T02:11:09.021Z,91.93
2018-12-25T02:13:37.733Z,91.97
2018-12-25T02:16:06.219Z,91.00
2018-12-25T02:18:34.704Z,92.11
2018-12-25T02:21:03.214Z,90.51
2018-12-25T02:23:31.749Z,90.62
2018-12-25T02:26:00.242Z,91.18
2018-12-25T02:28:28.725Z,91.36
2018-12-25T02:30:57.207Z,92.19
2018-12-25T02:33:25.688Z,91.16
2018-12-25T02:35:54.179Z,91.71
2018-12-25T02:38:22.653Z,91.25
2018-12-25T02:40:51.157Z,92.28
2018-12-25T02:43:19.849Z,91.47
2018-12-25T02:45:48.349Z,91.44
2018-12-25T02:48:16.835Z,90.44
2018-12-25T02:50:45.317Z,89.91
2018-12-25T02:53:13.811Z,90.17
2018-12-25T02:55:42.304Z,90.82
2018-12-25T02:58:11.036Z,92.03
2018-12-25T03:00:39.585Z,91.55
2018-12-25T03:03:08.075Z,92.07
2018-12-25T03:05:36.560Z,91.74
2018-12-25T03:08:05.096Z,91.24
2018-12-25T03:10:33.552Z,91.62
2018-12-25T03:13:02.055Z,90.93
2018-12-25T03:15:30.538Z,91.18
2018-12-25T03:17:59.032Z,91.71
2018-12-25T03:20:27.516Z,91.74
2018-12-25T03:22:56.245Z,92.01
2018-12-25T03:25:44.113Z,91.47
2018-12-25T03:28:14.573Z,91.88
2018-12-25T03:30:43.108Z,91.52
2018-12-25T03:33:11.591Z,91.51
2018-12-25T03:35:40.073Z,92.35
2018-12-25T03:38:08.555Z,92.33
2018-12-25T03:40:37.036Z,92.72
2018-12-25T03:43:05.763Z,92.38
2018-12-25T03:45:34.243Z,92.05
2018-12-25T03:48:02.747Z,92.48
2018-12-25T03:50:31.463Z,91.78
2018-12-25T03:52:59.974Z,91.94
2018-12-25T03:55:28.473Z,91.35
2018-12-25T03:57:56.951Z,91.37
2018-12-25T04:00:25.485Z,91.85
2018-12-25T04:02:53.950Z,90.97
2018-12-25T04:05:22.431Z,90.51
2018-12-25T04:07:50.921Z,90.52
2018-12-25T04:10:19.409Z,90.03
2018-12-25T04:12:47.884Z,89.51
2018-12-25T04:15:16.616Z,90.11
2018-12-25T04:17:45.095Z,89.42
2018-12-25T04:20:19.742Z,89.37
2018-12-25T04:22:43.781Z,90.28
2018-12-25T04:25:12.284Z,90.66
2018-12-25T04:27:40.789Z,91.24
2018-12-25T04:30:09.270Z,91.40
2018-12-25T04:32:37.758Z,91.00
2018-12-25T04:35:06.235Z,91.24
2018-12-25T04:37:34.734Z,91.13
2018-12-25T04:40:03.278Z,90.64
2018-12-25T04:42:31.762Z,91.27
2018-12-25T04:45:00.249Z,91.07
2018-12-25T04:47:28.743Z,90.29
2018-12-25T04:49:57.225Z,91.03
2018-12-25T04:52:25.709Z,90.33
2018-12-25T04:54:54.214Z,90.18
2018-12-25T04:57:22.703Z,89.71
2018-12-25T04:59:51.191Z,90.34
2018-12-25T05:02:19.670Z,88.91
2018-12-25T05:04:48.166Z,89.62
2018-12-25T05:07:16.645Z,88.99
2018-12-25T05:09:45.125Z,88.83
2018-12-25T05:12:13.611Z,89.29
2018-12-25T05:14:42.104Z,89.24
2018-12-25T05:17:10.580Z,88.68
2018-12-25T05:19:39.089Z,88.20
2018-12-25T05:22:07.567Z,89.39
2018-12-25T05:24:36.061Z,88.79
2018-12-25T05:27:04.534Z,88.51
2018-12-25T05:29:33.027Z,89.09
2018-12-25T05:32:01.501Z,90.25
2018-12-25T05:34:29.985Z,91.12
2018-12-25T05:36:58.471Z,90.95
2018-12-25T05:39:26.953Z,90.67
2018-12-25T05:41:55.456Z,90.57
2018-12-25T05:44:23.931Z,90.25
2018-12-25T05:46:52.430Z,90.05
2018-12-25T05:49:20.915Z,89.48
2018-12-25T05:51:49.412Z,90.71
2018-12-25T05:54:37.232Z,90.13
2018-12-25T05:57:05.961Z,90.89
2018-12-25T05:59:34.449Z,89.54
2018-12-25T06:02:02.935Z,88.73
2018-12-25T06:04:31.406Z,89.39
2018-12-25T06:06:59.898Z,88.59
2018-12-25T06:09:28.625Z,88.52
2018-12-25T06:11:57.116Z,89.10
2018-12-25T06:14:25.601Z,89.43
2018-12-25T06:16:54.092Z,90.72
2018-12-25T06:19:22.653Z,90.95
2018-12-25T06:21:51.128Z,90.10
2018-12-25T06:24:19.625Z,89.93
2018-12-25T06:26:48.111Z,90.71
2018-12-25T06:29:16.605Z,90.62
2018-12-25T06:31:45.085Z,89.81
2018-12-25T06:34:13.572Z,90.15
2018-12-25T06:36:42.049Z,91.12
2018-12-25T06:39:10.539Z,90.41
2018-12-25T06:41:39.016Z,90.38
2018-12-25T06:44:07.488Z,89.69
2018-12-25T06:46:35.990Z,90.84
2018-12-25T06:49:04.473Z,90.23
2018-12-25T06:51:32.966Z,89.87
2018-12-25T06:54:01.452Z,89.56
2018-12-25T06:56:30.015Z,89.87
2018-12-25T06:59:00.150Z,89.84
2018-12-25T07:01:31.814Z,89.27
2018-12-25T07:04:00.300Z,88.75
2018-12-25T07:06:28.956Z,88.84
2018-12-25T07:08:57.360Z,88.63
2018-12-25T07:11:25.854Z,87.86
2018-12-25T07:13:57.421Z,87.18
2018-12-25T07:16:25.827Z,87.38
2018-12-25T07:18:55.244Z,87.80
2018-12-25T07:21:23.730Z,88.28
2018-12-25T07:23:52.218Z,87.49
2018-12-25T07:26:20.708Z,88.38
2018-12-25T07:28:49.206Z,89.35
2018-12-25T07:31:17.694Z,88.60
2018-12-25T07:33:49.380Z,88.97
2018-12-25T07:36:17.927Z,88.67
2018-12-25T07:38:49.324Z,88.04
2018-12-25T07:41:18.827Z,89.33
2018-12-25T07:43:47.305Z,88.77
2018-12-25T07:46:15.802Z,89.03
2018-12-25T07:48:44.270Z,88.27
2018-12-25T07:51:20.507Z,88.57
2018-12-25T07:53:42.972Z,88.63
2018-12-25T07:56:11.492Z,87.05
2018-12-25T07:58:39.980Z,87.82
2018-12-25T08:01:09.451Z,88.31
2018-12-25T08:03:38.879Z,89.08
2018-12-25T08:06:07.379Z,89.70
2018-12-25T08:08:35.880Z,90.33
2018-12-25T08:11:04.366Z,89.63
2018-12-25T08:13:32.868Z,90.06
2018-12-25T08:16:01.346Z,89.73
2018-12-25T08:18:29.908Z,89.79
2018-12-25T08:20:58.629Z,89.08
2018-12-25T08:23:27.114Z,88.93
2018-12-25T08:25:55.607Z,89.38
2018-12-25T08:28:24.104Z,89.63
2018-12-25T08:30:52.883Z,89.09
2018-12-25T08:33:21.376Z,88.60
2018-12-25T08:35:52.456Z,88.43
2018-12-25T08:38:20.944Z,87.80
2018-12-25T08:40:49.415Z,89.03
2018-12-25T08:43:17.899Z,88.59
2018-12-25T08:45:46.384Z,88.48
2018-12-25T08:48:14.868Z,88.30
2018-12-25T08:50:43.355Z,87.77
2018-12-25T08:53:11.828Z,87.06
2018-12-25T08:55:40.317Z,87.39
2018-12-25T08:58:08.788Z,87.80
2018-12-25T09:00:38.227Z,87.36
2018-12-25T09:03:06.703Z,87.54
2018-12-25T09:05:35.195Z,86.48
2018-12-25T09:08:03.671Z,86.50
2018-12-25T09:10:32.199Z,86.54
2018-12-25T09:13:00.909Z,86.49
2018-12-25T09:15:29.691Z,86.17
2018-12-25T09:17:58.174Z,85.91
2018-12-25T09:20:26.657Z,86.32
2018-12-25T09:22:56.120Z,86.32
2018-12-25T09:25:24.604Z,87.01
2018-12-25T09:27:53.114Z,86.44
2018-12-25T09:30:21.609Z,86.04
2018-12-25T09:32:50.101Z,85.76
2018-12-25T09:35:18.593Z,85.89
2018-12-25T09:37:47.068Z,86.16
2018-12-25T09:40:15.547Z,85.98
2018-12-25T09:42:44.046Z,86.25
2018-12-25T09:45:12.557Z,86.08
2018-12-25T09:47:42.032Z,85.61
2018-12-25T09:50:10.520Z,85.17
2018-12-25T09:53:23.679Z,84.13
2018-12-25T09:55:52.065Z,84.27
2018-12-25T09:58:20.466Z,84.35
2018-12-25T10:00:48.854Z,82.94
2018-12-25T10:03:17.227Z,83.06
2018-12-25T10:05:45.611Z,83.40
2018-12-25T10:08:13.987Z,83.63
2018-12-25T10:10:45.044Z,84.20
2018-12-25T10:13:19.511Z,84.09
2018-12-25T10:15:47.897Z,84.21
2018-12-25T10:18:16.303Z,84.77
2018-12-25T10:20:44.688Z,84.70
2018-12-25T10:23:14.021Z,84.01
2018-12-25T10:25:42.648Z,82.91
2018-12-25T10:28:11.020Z,82.08
2018-12-25T10:30:42.436Z,81.91
2018-12-25T10:33:10.834Z,82.04
2018-12-25T10:35:39.203Z,81.16
2018-12-25T10:38:07.648Z,81.17
2018-12-25T10:40:36.284Z,81.89
2018-12-25T10:43:04.681Z,81.24
2018-12-25T10:45:33.062Z,81.40
2018-12-25T10:48:01.515Z,80.87
2018-12-25T10:50:29.847Z,80.48
2018-12-25T10:53:02.317Z,80.99
2018-12-25T10:55:30.756Z,80.87
2018-12-25T10:58:00.097Z,79.69
2018-12-25T11:00:39.352Z,79.73
2018-12-25T11:03:07.729Z,80.77
2018-12-25T11:05:37.192Z,80.69
2018-12-25T11:08:08.495Z,80.80
2018-12-25T11:10:36.891Z,80.05
2018-12-25T11:13:05.255Z,80.90
2018-12-25T11:15:33.842Z,80.97
2018-12-25T11:18:02.210Z,80.32
2018-12-25T11:20:30.859Z,79.74
2018-12-25T11:22:59.228Z,79.50
2018-12-25T11:25:29.941Z,79.83
2018-12-25T11:27:58.317Z,79.15
2018-12-25T11:30:26.711Z,78.70
2018-12-25T11:32:55.100Z,95.63
2018-12-25T11:35:23.505Z,99.16
2018-12-25T11:37:51.880Z,87.47
2018-12-25T11:40:20.271Z,81.81
2018-12-25T11:42:49.578Z,81.16
2018-12-25T11:45:17.990Z,76.92
2018-12-25T11:47:51.026Z,75.44
2018-12-25T11:50:19.666Z,75.69
2018-12-25T11:52:49.997Z,77.58
2018-12-25T11:55:18.369Z,76.03
2018-12-25T11:57:46.754Z,75.29
2018-12-25T12:00:15.131Z,76.51
2018-12-25T12:02:52.819Z,74.74
2018-12-25T12:05:21.190Z,76.50
2018-12-25T12:07:49.581Z,76.31
2018-12-25T12:10:17.959Z,75.76
2018-12-25T12:12:46.335Z,75.57
2018-12-25T12:15:14.713Z,75.47
2018-12-25T12:17:43.101Z,75.87
2018-12-25T12:20:11.543Z,75.04
2018-12-25T12:22:39.979Z,74.48
2018-12-25T12:25:11.637Z,73.73
2018-12-25T12:27:39.931Z,73.69
2018-12-25T12:30:08.384Z,74.12
2018-12-25T12:32:36.764Z,74.08
2018-12-25T12:35:05.487Z,74.14
2018-12-25T12:37:33.861Z,73.78
2018-12-25T12:40:02.271Z,74.70
2018-12-25T12:42:30.647Z,73.03
2018-12-25T12:44:59.028Z,71.31
2018-12-25T12:47:27.401Z,69.93
2018-12-25T12:49:55.839Z,70.98
2018-12-25T12:52:26.103Z,72.05
2018-12-25T12:54:57.666Z,70.78
2018-12-25T12:57:26.058Z,71.06
2018-12-25T12:59:54.441Z,70.98
2018-12-25T13:02:22.861Z,69.54
2018-12-25T13:04:51.502Z,68.35
2018-12-25T13:07:19.888Z,69.42
2018-12-25T13:09:48.266Z,68.82
2018-12-25T13:12:16.657Z,68.29
2018-12-25T13:14:45.053Z,69.19
2018-12-25T13:17:15.432Z,69.21
2018-12-25T13:19:47.791Z,71.94
2018-12-25T13:22:16.175Z,69.86
2018-12-25T13:24:44.558Z,70.00
2018-12-25T13:27:12.938Z,69.44
2018-12-25T13:29:41.311Z,69.74
2018-12-25T13:32:09.694Z,69.57
2018-12-25T13:34:38.978Z,68.07
2018-12-25T13:37:07.349Z,69.82
2018-12-25T13:39:35.734Z,69.39
2018-12-25T13:42:05.065Z,68.95
2018-12-25T13:44:33.441Z,68.23
2018-12-25T13:47:01.821Z,69.90
2018-12-25T13:49:30.206Z,68.57
2018-12-25T13:51:58.583Z,68.49
2018-12-25T13:54:26.952Z,66.58
2018-12-25T13:56:55.421Z,67.25
2018-12-25T13:59:23.771Z,67.55
2018-12-25T14:01:52.133Z,67.12
2018-12-25T14:04:20.516Z,67.25
2018-12-25T14:06:48.889Z,68.16
2018-12-25T14:09:17.272Z,67.95
2018-12-25T14:11:45.644Z,67.71
2018-12-25T14:14:14.020Z,67.71
2018-12-25T14:16:42.400Z,67.21
2018-12-25T14:19:11.097Z,67.65
2018-12-25T14:21:39.477Z,67.11
2018-12-25T14:24:07.845Z,65.34
2018-12-25T14:26:36.213Z,65.35
2018-12-25T14:29:04.582Z,66.56
2018-12-25T14:31:32.956Z,65.54
2018-12-25T14:34:01.321Z,65.71
2018-12-25T14:36:30.039Z,64.94
2018-12-25T14:38:58.411Z,65.45
2018-12-25T14:41:26.789Z,65.09
2018-12-25T14:43:55.153Z,64.72
2018-12-25T14:46:23.549Z,66.85
2018-12-25T14:48:51.914Z,65.49
2018-12-25T14:51:20.359Z,64.95
2018-12-25T14:53:48.742Z,65.73
2018-12-25T14:56:17.123Z,65.48
2018-12-25T14:58:45.513Z,64.93
2018-12-25T15:01:13.897Z,66.53
2018-12-25T15:03:42.295Z,65.72
2018-12-25T15:06:10.710Z,66.35
2018-12-25T15:08:39.084Z,66.71
2018-12-25T15:11:07.449Z,65.31
2018-12-25T15:13:36.065Z,65.77
2018-12-25T15:16:04.455Z,65.80
2018-12-25T15:18:32.834Z,65.47
2018-12-25T15:21:01.212Z,67.04
2018-12-25T15:23:29.611Z,67.25
2018-12-25T15:25:58.028Z,65.82
2018-12-25T15:28:26.710Z,65.54
2018-12-25T15:30:55.074Z,65.10
2018-12-25T15:33:23.478Z,64.52
2018-12-25T15:35:51.843Z,67.96
2018-12-25T15:38:20.216Z,66.37
2018-12-25T15:40:48.588Z,68.68
2018-12-25T15:43:16.961Z,68.25
2018-12-25T15:45:45.463Z,67.08
2018-12-25T15:48:13.832Z,66.34
2018-12-25T15:50:42.221Z,66.75
2018-12-25T15:53:10.590Z,65.24
2018-12-25T15:55:38.974Z,66.58
2018-12-25T15:58:07.716Z,66.80
2018-12-25T16:00:36.096Z,68.56
2018-12-25T16:03:04.468Z,66.87
2018-12-25T16:05:33.785Z,67.06
2018-12-25T16:08:02.155Z,67.56
2018-12-25T16:10:30.560Z,67.75
2018-12-25T16:12:58.936Z,69.74
2018-12-25T16:15:27.307Z,69.71
2018-12-25T16:17:55.697Z,68.26
2018-12-25T16:20:24.384Z,70.14
2018-12-25T16:22:52.768Z,68.38
2018-12-25T16:25:21.143Z,69.88
2018-12-25T16:27:49.525Z,71.02
2018-12-25T16:30:17.899Z,69.59
2018-12-25T16:32:46.279Z,69.41
2018-12-25T16:35:14.659Z,71.15
2018-12-25T16:37:43.344Z,71.80
2018-12-25T16:40:11.715Z,72.11
2018-12-25T16:42:40.106Z,71.63
2018-12-25T16:45:08.499Z,71.05
2018-12-25T16:47:36.946Z,71.70
2018-12-25T16:50:05.696Z,70.72
2018-12-25T16:52:34.068Z,70.08
2018-12-25T16:55:02.449Z,72.33
2018-12-25T16:57:30.817Z,73.03
2018-12-25T16:59:59.471Z,71.36
2018-12-25T17:02:27.854Z,71.59
2018-12-25T17:04:56.235Z,72.44
2018-12-25T17:07:24.614Z,73.19
2018-12-25T17:09:53.087Z,72.98
2018-12-25T17:12:21.497Z,73.22
2018-12-25T17:14:49.886Z,72.67
2018-12-25T17:17:18.320Z,74.70
2018-12-25T17:19:46.716Z,74.57
2018-12-25T17:22:15.157Z,74.86
2018-12-25T17:24:43.538Z,74.57
2018-12-25T17:27:12.856Z,74.40
2018-12-25T17:29:41.244Z,74.26
2018-12-25T17:32:09.622Z,74.62
2018-12-25T17:34:38.020Z,74.23
2018-12-25T17:37:06.410Z,75.17
2018-12-25T17:39:34.777Z,74.23
2018-12-25T17:42:03.178Z,74.12
2018-12-25T17:44:31.542Z,74.29
2018-12-25T17:46:59.928Z,74.32
2018-12-25T17:49:28.305Z,76.06
2018-12-25T17:51:56.686Z,75.88
2018-12-25T17:54:25.057Z,75.87
2018-12-25T17:56:53.513Z,75.07
2018-12-25T17:59:21.846Z,74.30
2018-12-25T18:01:50.224Z,74.38
2018-12-25T18:04:18.629Z,73.77
2018-12-25T18:06:46.978Z,74.30
2018-12-25T18:09:15.367Z,75.98
2018-12-25T18:11:43.770Z,74.98
2018-12-25T18:14:12.149Z,75.65
2018-12-25T18:16:40.530Z,75.08
2018-12-25T18:19:08.908Z,76.73
2018-12-25T18:21:37.297Z,75.84
2018-12-25T18:24:05.677Z,76.25
2018-12-25T18:26:34.096Z,75.92
2018-12-25T18:29:02.479Z,76.37
2018-12-25T18:31:30.868Z,75.92
2018-12-25T18:33:59.249Z,76.43
2018-12-25T18:36:27.621Z,77.71
2018-12-25T18:38:56.082Z,77.69
2018-12-25T18:41:24.460Z,78.61
2018-12-25T18:43:52.853Z,77.45
2018-12-25T18:46:21.221Z,79.02
2018-12-25T18:48:50.629Z,76.83
2018-12-25T18:51:19.016Z,78.24
2018-12-25T18:53:47.400Z,78.80
2018-12-25T18:56:16.017Z,79.42
2018-12-25T18:58:44.421Z,78.03
2018-12-25T19:01:12.776Z,77.66
2018-12-25T19:03:41.164Z,77.18
2018-12-25T19:06:09.547Z,76.86
2018-12-25T19:08:37.952Z,80.19
2018-12-25T19:11:06.330Z,79.54
2018-12-25T19:13:34.714Z,79.28
2018-12-25T19:16:03.634Z,79.81
2018-12-25T19:18:32.016Z,79.35
2018-12-25T19:21:00.386Z,79.51
2018-12-25T19:23:28.778Z,80.90
2018-12-25T19:25:57.151Z,80.55
2018-12-25T19:28:25.523Z,80.80
2018-12-25T19:30:53.933Z,80.36
2018-12-25T19:33:22.316Z,81.15
2018-12-25T19:35:50.694Z,80.78
2018-12-25T19:38:19.069Z,79.98
2018-12-25T19:40:56.360Z,80.94
2018-12-25T19:43:24.729Z,80.43
2018-12-25T19:45:53.356Z,80.39
2018-12-25T19:48:24.834Z,81.24
2018-12-25T19:50:53.222Z,81.46
2018-12-25T19:53:23.575Z,81.93
2018-12-25T19:55:52.035Z,81.87
2018-12-25T19:58:20.424Z,81.41
2018-12-25T20:00:48.833Z,81.61
2018-12-25T20:03:17.280Z,79.62
2018-12-25T20:05:48.723Z,80.70
2018-12-25T20:08:41.090Z,81.37
2018-12-25T20:11:27.421Z,80.38
2018-12-25T20:13:58.853Z,83.57
2018-12-25T20:16:44.667Z,81.65
2018-12-25T20:19:18.744Z,81.82
2018-12-25T20:22:05.011Z,81.68
2018-12-25T20:24:55.766Z,82.31
2018-12-25T20:27:43.590Z,84.94
2018-12-25T20:30:28.331Z,84.37
2018-12-25T20:33:14.553Z,82.34
2018-12-25T20:35:50.619Z,84.63
2018-12-25T20:38:44.689Z,84.78
2018-12-25T20:41:35.418Z,83.53
2018-12-25T20:44:15.055Z,84.08
2018-12-25T20:47:04.449Z,81.79
2018-12-25T20:49:54.083Z,84.15
2018-12-25T20:52:34.309Z,83.92
2018-12-25T20:55:25.456Z,83.18
2018-12-25T20:58:23.975Z,82.93
2018-12-25T21:01:17.286Z,84.04
2018-12-25T21:04:05.412Z,83.98
2018-12-25T21:07:10.311Z,83.85
2018-12-25T21:09:50.556Z,84.79
2018-12-25T21:12:45.435Z,83.21
2018-12-25T21:15:40.941Z,82.14
2018-12-25T21:18:36.565Z,82.36
2018-12-25T21:21:22.992Z,81.72
2018-12-25T21:24:27.738Z,83.91
2018-12-25T21:27:28.869Z,82.45
2018-12-25T21:29:57.700Z,83.73
2018-12-25T21:32:26.567Z,81.97
2018-12-25T21:35:10.050Z,83.12
2018-12-25T21:37:38.596Z,82.96
2018-12-25T21:40:07.557Z,83.29
2018-12-25T21:42:36.535Z,82.96
2018-12-25T21:45:06.446Z,82.26
2018-12-25T21:47:34.976Z,82.66
2018-12-25T21:50:09.397Z,83.50
2018-12-25T21:52:47.083Z,82.74
2018-12-25T21:55:18.948Z,83.18
2018-12-25T21:57:46.608Z,82.29
2018-12-25T22:00:15.008Z,83.43
2018-12-25T22:02:43.619Z,83.55
2018-12-25T22:05:17.744Z,82.41
2018-12-25T22:07:46.127Z,82.61
2018-12-25T22:10:14.524Z,83.35
2018-12-25T22:12:42.900Z,84.27
2018-12-25T22:15:11.562Z,82.38
2018-12-25T22:17:39.953Z,82.66
2018-12-25T22:20:11.376Z,82.62
2018-12-25T22:22:39.759Z,82.63
2018-12-25T22:25:08.132Z,83.37
2018-12-25T22:27:36.521Z,84.46
2018-12-25T22:30:06.343Z,82.62
2018-12-25T22:32:34.732Z,83.96
2018-12-25T22:35:03.403Z,82.98
2018-12-25T22:37:31.820Z,84.47
2018-12-25T22:40:00.203Z,84.77
2018-12-25T22:42:28.575Z,85.54
2018-12-25T22:45:01.202Z,86.16
2018-12-25T22:47:29.587Z,85.64
2018-12-25T22:49:57.963Z,85.01
2018-12-25T22:52:26.331Z,85.38
2018-12-25T22:54:54.714Z,87.47
2018-12-25T22:57:23.176Z,86.89
2018-12-25T22:59:51.555Z,87.83
2018-12-25T23:02:21.890Z,86.39
2018-12-25T23:04:50.269Z,86.94
2018-12-25T23:07:18.645Z,87.71
2018-12-25T23:09:47.070Z,88.16
2018-12-25T23:12:15.442Z,88.00
2018-12-25T23:14:43.826Z,87.21
2018-12-25T23:17:12.374Z,86.88
2018-12-25T23:19:41.393Z,86.30
2018-12-25T23:22:10.885Z,87.75
2018-12-25T23:24:39.258Z,88.13
2018-12-25T23:27:07.630Z,87.60
2018-12-25T23:29:36.008Z,88.57
2018-12-25T23:32:04.403Z,88.98
2018-12-25T23:34:32.784Z,89.43
2018-12-25T23:37:01.168Z,89.42
2018-12-25T23:39:29.592Z,89.46
2018-12-25T23:41:59.469Z,89.48
2018-12-25T23:44:27.979Z,89.24
2018-12-25T23:46:56.363Z,88.36
2018-12-25T23:49:24.766Z,89.57
2018-12-25T23:51:53.151Z,89.45
2018-12-25T23:54:21.533Z,90.08
2018-12-25T23:56:49.943Z,90.35
2018-12-25T23:59:18.625Z,90.38
